Time,TemperatureF,DewpointF,PressureIn,WindDirection,WindDirectionDegrees,WindSpeedMPH,WindSpeedGustMPH,Humidity,HourlyPrecipIn,Conditions,Clouds,dailyrainin,SolarRadiationWatts/m^2,SoftwareType,DateUTC
2013-04-10 00:00:00,21.2,17.4,30.52,NNW,346,4.0,7.0,85,0.00,,CLR,0.00,0.00,VWS V14.00,2013-04-10 05:00:00,
2013-04-10 00:05:00,21.2,17.1,30.52,NNW,346,3.0,6.0,84,0.00,,CLR,0.00,0.00,VWS V14.00,2013-04-10 05:05:00,
2013-04-10 00:10:00,21.2,17.1,30.52,NNW,346,4.0,6.0,84,0.00,,CLR,0.00,0.00,VWS V14.00,2013-04-10 05:10:00,
2013-04-10 00:15:00,21.3,17.2,30.52,NNW,345,5.0,6.0,84,0.00,,CLR,0.00,0.00,VWS V14.00,2013-04-10 05:15:00,
2013-04-10 00:21:00,21.4,17.3,30.52,NNW,342,5.0,6.0,84,0.00,,CLR,0.00,0.00,VWS V14.00,2013-04-10 05:21:00,
2013-04-10 00:26:00,21.5,17.4,30.52,NNW,340,4.0,6.0,84,0.00,,CLR,0.00,0.00,VWS V14.00,2013-04-10 05:26:00,
2013-04-10 00:32:00,21.5,17.4,30.53,NNW,335,5.0,6.0,84,0.00,,CLR,0.00,0.00,VWS V14.00,2013-04-10 05:32:00,
2013-04-10 00:37:00,21.5,17.4,30.52,NNW,333,6.0,6.0,84,0.00,,CLR,0.00,0.00,VWS V14.00,2013-04-10 05:37:00,
2013-04-10 00:42:00,21.4,17.3,30.52,NNW,333,4.0,6.0,84,0.00,,CLR,0.00,0.00,VWS V14.00,2013-04-10 05:42:00,
2013-04-10 00:47:00,21.4,17.3,30.53,NNW,333,3.0,6.0,84,0.00,,CLR,0.00,0.00,VWS V14.00,2013-04-10 05:47:00,
2013-04-10 00:53:00,21.4,17.6,30.53,NNW,333,5.0,6.0,85,0.00,,CLR,0.00,0.00,VWS V14.00,2013-04-10 05:53:00,
2013-04-10 00:58:00,21.4,17.6,30.53,NNW,333,3.0,6.0,85,0.00,,CLR,0.00,0.00,VWS V14.00,2013-04-10 05:58:00,
2013-04-10 01:03:00,21.4,17.6,30.53,NNW,334,4.0,5.0,85,0.00,,CLR,0.00,0.00,VWS V14.00,2013-04-10 06:03:00,
2013-04-10 01:08:00,21.4,17.6,30.53,NNW,335,4.0,6.0,85,0.00,,CLR,0.00,0.00,VWS V14.00,2013-04-10 06:08:00,
2013-04-10 01:13:00,21.5,17.7,30.53,NNW,336,5.0,7.0,85,0.00,,CLR,0.00,0.00,VWS V14.00,2013-04-10 06:13:00,
2013-04-10 01:18:00,21.5,17.7,30.53,NNW,339,6.0,7.0,85,0.00,,CLR,0.00,0.00,VWS V14.00,2013-04-10 06:18:00,
2013-04-10 01:23:00,21.6,18.1,30.52,NNW,340,7.0,7.0,86,0.00,,CLR,0.00,0.00,VWS V14.00,2013-04-10 06:23:00,
2013-04-10 01:28:00,21.7,18.2,30.52,NNW,346,6.0,7.0,86,0.00,,CLR,0.00,0.00,VWS V14.00,2013-04-10 06:28:00,
2013-04-10 01:33:00,21.8,18.3,30.52,North,355,6.0,8.0,86,0.00,,CLR,0.00,0.00,VWS V14.00,2013-04-10 06:33:00,
2013-04-10 01:38:00,21.9,18.4,30.51,North,9,6.0,9.0,86,0.00,,CLR,0.00,0.00,VWS V14.00,2013-04-10 06:38:00,
2013-04-10 01:43:00,22.0,18.5,30.51,North,360,7.0,11.0,86,0.00,,CLR,0.00,0.00,VWS V14.00,2013-04-10 06:43:00,
2013-04-10 01:49:00,22.1,18.6,30.51,North,5,8.0,11.0,86,0.00,,CLR,0.00,0.00,VWS V14.00,2013-04-10 06:49:00,
2013-04-10 01:54:00,22.2,18.4,30.49,NNE,13,10.0,13.0,85,0.00,,CLR,0.00,0.00,VWS V14.00,2013-04-10 06:54:00,
2013-04-10 01:59:00,22.2,18.4,30.48,North,5,11.0,14.0,85,0.00,,CLR,0.00,0.00,VWS V14.00,2013-04-10 06:59:00,
2013-04-10 02:04:00,22.3,18.5,30.48,North,5,8.0,15.0,85,0.00,,CLR,0.00,0.00,VWS V14.00,2013-04-10 07:04:00,
2013-04-10 02:09:00,22.2,18.4,30.47,North,360,9.0,15.0,85,0.00,,CLR,0.00,0.00,VWS V14.00,2013-04-10 07:09:00,
2013-04-10 02:14:00,22.2,18.4,30.47,NNE,12,8.0,15.0,85,0.00,,CLR,0.00,0.00,VWS V14.00,2013-04-10 07:14:00,
2013-04-10 02:19:00,22.2,18.4,30.47,NNE,15,9.0,15.0,85,0.00,,CLR,0.00,0.00,VWS V14.00,2013-04-10 07:19:00,
2013-04-10 02:24:00,22.1,18.3,30.47,NNE,23,9.0,15.0,85,0.00,,CLR,0.00,0.00,VWS V14.00,2013-04-10 07:24:00,
2013-04-10 02:29:00,22.1,18.3,30.45,NNE,13,9.0,15.0,85,0.00,,CLR,0.00,0.00,VWS V14.00,2013-04-10 07:29:00,
2013-04-10 02:34:00,22.0,18.2,30.43,North,5,11.0,13.0,85,0.00,,CLR,0.00,0.00,VWS V14.00,2013-04-10 07:34:00,
2013-04-10 02:39:00,22.0,18.2,30.42,North,10,13.0,15.0,85,0.00,,CLR,0.00,0.00,VWS V14.00,2013-04-10 07:39:00,
2013-04-10 02:44:00,22.0,18.2,30.41,NNE,18,12.0,16.0,85,0.00,,CLR,0.00,0.00,VWS V14.00,2013-04-10 07:44:00,
2013-04-10 02:50:00,22.0,18.2,30.41,NNE,17,14.0,16.0,85,0.00,,CLR,0.00,0.00,VWS V14.00,2013-04-10 07:50:00,
2013-04-10 02:55:00,22.1,18.3,30.40,NNE,18,11.0,16.0,85,0.00,,CLR,0.00,0.00,VWS V14.00,2013-04-10 07:55:00,
2013-04-10 03:00:00,22.1,18.3,30.39,NNE,17,15.0,16.0,85,0.00,,CLR,0.00,0.00,VWS V14.00,2013-04-10 08:00:00,
2013-04-10 03:05:00,22.2,18.7,30.37,NNE,19,13.0,16.0,86,0.00,,CLR,0.00,0.00,VWS V14.00,2013-04-10 08:05:00,
2013-04-10 03:10:00,22.2,18.4,30.36,North,360,12.0,19.0,85,0.00,,CLR,0.00,0.00,VWS V14.00,2013-04-10 08:10:00,
2013-04-10 03:15:00,22.3,18.5,30.36,North,11,15.0,19.0,85,0.00,,CLR,0.00,0.00,VWS V14.00,2013-04-10 08:15:00,
2013-04-10 03:20:00,22.4,18.6,30.35,NNE,16,12.0,19.0,85,0.00,,CLR,0.00,0.00,VWS V14.00,2013-04-10 08:20:00,
2013-04-10 03:25:00,22.4,18.6,30.35,North,360,10.0,19.0,85,0.00,,CLR,0.00,0.00,VWS V14.00,2013-04-10 08:25:00,
2013-04-10 03:30:00,22.5,18.7,30.35,NNE,14,10.0,11.0,85,0.00,,CLR,0.00,0.00,VWS V14.00,2013-04-10 08:30:00,
2013-04-10 03:35:00,22.5,18.4,30.35,NNE,19,12.0,16.0,84,0.00,,CLR,0.00,0.00,VWS V14.00,2013-04-10 08:35:00,
2013-04-10 03:40:00,22.4,18.6,30.35,North,360,8.0,16.0,85,0.00,,CLR,0.00,0.00,VWS V14.00,2013-04-10 08:40:00,
2013-04-10 03:45:00,22.5,18.7,30.37,North,360,11.0,16.0,85,0.00,,CLR,0.00,0.00,VWS V14.00,2013-04-10 08:45:00,
2013-04-10 03:51:00,22.4,18.6,30.38,North,355,7.0,16.0,85,0.00,,CLR,0.00,0.00,VWS V14.00,2013-04-10 08:51:00,
2013-04-10 03:56:00,22.5,18.7,30.39,North,5,7.0,16.0,85,0.00,,CLR,0.00,0.00,VWS V14.00,2013-04-10 08:56:00,
2013-04-10 04:01:00,22.5,18.7,30.41,North,5,4.0,6.0,85,0.00,,CLR,0.00,0.00,VWS V14.00,2013-04-10 09:01:00,
2013-04-10 04:06:00,22.5,18.7,30.41,North,5,3.0,8.0,85,0.00,,CLR,0.00,0.00,VWS V14.00,2013-04-10 09:06:00,
2013-04-10 04:11:00,22.5,18.7,30.42,North,5,2.0,8.0,85,0.00,,CLR,0.00,0.00,VWS V14.00,2013-04-10 09:11:00,
2013-04-10 04:16:00,22.5,18.7,30.42,North,5,3.0,8.0,85,0.00,,CLR,0.00,0.00,VWS V14.00,2013-04-10 09:16:00,
2013-04-10 04:21:00,22.6,18.8,30.43,North,5,0.0,8.0,85,0.00,,CLR,0.00,0.00,VWS V14.00,2013-04-10 09:21:00,
2013-04-10 04:26:00,22.6,18.8,30.43,North,5,0.0,8.0,85,0.00,,CLR,0.00,0.00,VWS V14.00,2013-04-10 09:26:00,
2013-04-10 04:32:00,22.6,18.8,30.43,North,5,0.0,0.0,85,0.00,,CLR,0.00,0.00,VWS V14.00,2013-04-10 09:32:00,
2013-04-10 04:37:00,22.4,18.6,30.42,North,5,4.0,4.0,85,0.00,,CLR,0.00,0.00,VWS V14.00,2013-04-10 09:37:00,
2013-04-10 04:42:00,22.0,18.2,30.41,North,360,5.0,6.0,85,0.00,,CLR,0.00,0.00,VWS V14.00,2013-04-10 09:42:00,
2013-04-10 04:47:00,21.8,18.3,30.42,North,360,2.0,6.0,86,0.00,,CLR,0.00,0.00,VWS V14.00,2013-04-10 09:47:00,
2013-04-10 04:53:00,21.8,18.3,30.42,North,360,2.0,6.0,86,0.00,,BKN120,0.00,0.00,VWS V14.00,2013-04-10 09:53:00,
2013-04-10 04:58:00,21.8,18.3,30.41,North,351,4.0,6.0,86,0.00,,BKN120,0.00,0.00,VWS V14.00,2013-04-10 09:58:00,
2013-04-10 05:03:00,21.8,18.3,30.40,NNW,348,6.0,7.0,86,0.00,,BKN120,0.00,0.00,VWS V14.00,2013-04-10 10:03:00,
2013-04-10 05:08:00,21.9,18.6,30.40,NNW,336,5.0,7.0,87,0.00,,BKN120,0.00,0.00,VWS V14.00,2013-04-10 10:08:00,
2013-04-10 05:13:00,22.0,18.7,30.41,NNW,333,6.0,7.0,87,0.00,,BKN120,0.00,0.00,VWS V14.00,2013-04-10 10:13:00,
2013-04-10 05:18:00,21.9,18.6,30.42,NW,324,5.0,7.0,87,0.00,,BKN120,0.00,0.00,VWS V14.00,2013-04-10 10:18:00,
2013-04-10 05:23:00,21.9,18.6,30.41,NW,324,5.0,7.0,87,0.00,,CLR,0.00,0.00,VWS V14.00,2013-04-10 10:23:00,
2013-04-10 05:28:00,21.9,18.6,30.41,NW,325,8.0,8.0,87,0.00,,CLR,0.00,0.00,VWS V14.00,2013-04-10 10:28:00,
2013-04-10 05:33:00,21.8,18.5,30.42,NNW,329,6.0,9.0,87,0.00,,CLR,0.00,0.00,VWS V14.00,2013-04-10 10:33:00,
2013-04-10 05:38:00,21.8,18.8,30.41,NNW,341,6.0,9.0,88,0.00,,CLR,0.00,0.00,VWS V14.00,2013-04-10 10:38:00,
2013-04-10 05:43:00,21.8,18.8,30.42,NNW,343,7.0,9.0,88,0.00,,SCT110,0.00,0.00,VWS V14.00,2013-04-10 10:43:00,
2013-04-10 05:48:00,21.8,18.8,30.41,NNW,346,9.0,9.0,88,0.00,,SCT110,0.00,0.00,VWS V14.00,2013-04-10 10:48:00,
2013-04-10 05:54:00,21.7,18.7,30.41,NNW,346,8.0,10.0,88,0.00,,SCT110,0.00,0.00,VWS V14.00,2013-04-10 10:54:00,
2013-04-10 05:59:00,21.8,18.8,30.41,NNW,344,9.0,10.0,88,0.00,,SCT110,0.00,0.00,VWS V14.00,2013-04-10 10:59:00,
2013-04-10 06:04:00,21.8,18.8,30.41,North,355,8.0,9.0,88,0.00,,SCT110,0.00,0.00,VWS V14.00,2013-04-10 11:04:00,
2013-04-10 06:09:00,21.8,18.8,30.40,North,360,10.0,12.0,88,0.00,,SCT110,0.00,0.00,VWS V14.00,2013-04-10 11:09:00,
2013-04-10 06:14:00,21.9,18.9,30.40,North,355,10.0,12.0,88,0.00,,SCT110,0.00,0.00,VWS V14.00,2013-04-10 11:14:00,
2013-04-10 06:19:00,21.9,18.6,30.41,North,355,8.0,12.0,87,0.00,,SCT110,0.00,0.00,VWS V14.00,2013-04-10 11:19:00,
2013-04-10 06:24:00,21.9,18.6,30.41,North,360,8.0,12.0,87,0.00,,SCT110,0.00,0.00,VWS V14.00,2013-04-10 11:24:00,
2013-04-10 06:29:00,21.9,18.6,30.42,North,355,6.0,12.0,87,0.00,,SCT110,0.00,0.00,VWS V14.00,2013-04-10 11:29:00,
2013-04-10 06:34:00,21.9,18.6,30.42,North,355,7.0,9.0,87,0.00,,SCT110,0.00,0.00,VWS V14.00,2013-04-10 11:34:00,
2013-04-10 06:39:00,21.9,18.4,30.42,North,5,5.0,9.0,86,0.00,,SCT110,0.00,0.00,VWS V14.00,2013-04-10 11:39:00,
2013-04-10 06:44:00,21.8,18.5,30.42,North,360,10.0,10.0,87,0.00,,FEW120,0.00,0.00,VWS V14.00,2013-04-10 11:44:00,
2013-04-10 06:49:00,21.8,18.3,30.41,North,355,10.0,13.0,86,0.00,,FEW120,0.00,0.00,VWS V14.00,2013-04-10 11:49:00,
2013-04-10 06:54:00,21.7,18.4,30.41,North,360,10.0,14.0,87,0.00,,FEW120,0.00,0.00,VWS V14.00,2013-04-10 11:54:00,
2013-04-10 07:00:00,21.6,18.3,30.41,North,360,12.0,14.0,87,0.00,,FEW120,0.00,0.00,VWS V14.00,2013-04-10 12:00:00,
2013-04-10 07:05:00,21.6,18.3,30.42,North,5,9.0,12.0,87,0.00,,FEW120,0.00,0.00,VWS V14.00,2013-04-10 12:05:00,
2013-04-10 07:10:00,21.6,18.3,30.41,North,5,9.0,13.0,87,0.00,,FEW120,0.00,0.00,VWS V14.00,2013-04-10 12:10:00,
2013-04-10 07:15:00,21.7,18.4,30.41,North,5,9.0,13.0,87,0.00,,FEW120,0.00,7.00,VWS V14.00,2013-04-10 12:15:00,
2013-04-10 07:20:00,21.7,18.4,30.41,North,5,9.0,13.0,87,0.00,,FEW120,0.00,11.00,VWS V14.00,2013-04-10 12:20:00,
2013-04-10 07:25:00,21.7,18.4,30.41,North,5,9.0,13.0,87,0.00,,FEW120,0.00,14.00,VWS V14.00,2013-04-10 12:25:00,
2013-04-10 07:30:00,21.7,18.4,30.40,North,5,9.0,9.0,87,0.00,,FEW120,0.00,19.00,VWS V14.00,2013-04-10 12:30:00,
2013-04-10 07:35:00,21.8,18.5,30.41,NNE,15,12.0,12.0,87,0.00,,FEW120,0.00,25.00,VWS V14.00,2013-04-10 12:35:00,
2013-04-10 07:40:00,21.9,18.6,30.41,NNE,15,9.0,12.0,87,0.00,,BKN110,0.00,30.00,VWS V14.00,2013-04-10 12:40:00,
2013-04-10 07:46:00,22.0,18.7,30.41,NNE,22,11.0,12.0,87,0.00,,BKN110,0.00,35.00,VWS V14.00,2013-04-10 12:46:00,
2013-04-10 07:51:00,22.1,18.8,30.41,NNE,22,8.0,12.0,87,0.00,,BKN110,0.00,42.00,VWS V14.00,2013-04-10 12:51:00,
2013-04-10 07:56:00,22.2,18.7,30.41,North,11,7.0,12.0,86,0.00,,BKN110,0.00,49.00,VWS V14.00,2013-04-10 12:56:00,
2013-04-10 08:01:00,22.3,18.8,30.40,North,360,8.0,10.0,86,0.00,,BKN110,0.00,53.00,VWS V14.00,2013-04-10 13:01:00,
2013-04-10 08:06:00,22.4,18.9,30.40,North,11,9.0,13.0,86,0.00,,BKN110,0.00,56.00,VWS V14.00,2013-04-10 13:06:00,
2013-04-10 08:12:00,22.4,18.9,30.40,North,5,8.0,13.0,86,0.00,,BKN110,0.00,60.00,VWS V14.00,2013-04-10 13:12:00,
2013-04-10 08:17:00,22.5,19.0,30.41,North,9,7.0,13.0,86,0.00,,BKN110,0.00,67.00,VWS V14.00,2013-04-10 13:17:00,
2013-04-10 08:22:00,22.6,18.8,30.41,North,355,7.0,13.0,85,0.00,,BKN110,0.00,84.00,VWS V14.00,2013-04-10 13:22:00,
2013-04-10 08:27:00,22.8,19.2,30.41,North,5,10.0,13.0,86,0.00,,BKN110,0.00,109.00,VWS V14.00,2013-04-10 13:27:00,
2013-04-10 08:32:00,23.0,19.2,30.41,NNE,15,7.0,10.0,85,0.00,,BKN110,0.00,144.00,VWS V14.00,2013-04-10 13:32:00,
2013-04-10 08:37:00,23.3,19.5,30.41,NNE,31,8.0,11.0,85,0.00,,BKN110,0.00,178.00,VWS V14.00,2013-04-10 13:37:00,
2013-04-10 08:42:00,23.7,19.9,30.41,NE,42,8.0,11.0,85,0.00,,BKN110,0.00,239.00,VWS V14.00,2013-04-10 13:42:00,
2013-04-10 08:47:00,24.3,20.2,30.41,NE,42,7.0,11.0,84,0.00,,BKN110,0.00,260.00,VWS V14.00,2013-04-10 13:47:00,
2013-04-10 08:52:00,24.8,20.1,30.42,NE,50,7.0,11.0,82,0.00,,BKN110,0.00,269.00,VWS V14.00,2013-04-10 13:52:00,
2013-04-10 08:58:00,25.1,20.1,30.41,NNE,28,7.0,11.0,81,0.00,,BKN110,0.00,250.00,VWS V14.00,2013-04-10 13:58:00,
2013-04-10 09:03:00,25.4,20.4,30.40,North,360,9.0,12.0,81,0.00,,BKN110,0.00,237.00,VWS V14.00,2013-04-10 14:03:00,
2013-04-10 09:08:00,25.1,20.1,30.41,NNW,348,3.0,12.0,81,0.00,,BKN110,0.00,223.00,VWS V14.00,2013-04-10 14:08:00,
2013-04-10 09:13:00,25.3,20.3,30.41,NNE,13,7.0,12.0,81,0.00,,BKN110,0.00,225.00,VWS V14.00,2013-04-10 14:13:00,
2013-04-10 09:18:00,25.7,20.4,30.41,NNE,26,7.0,12.0,80,0.00,,BKN110,0.00,218.00,VWS V14.00,2013-04-10 14:18:00,
2013-04-10 09:23:00,25.9,20.3,30.41,NE,47,7.0,12.0,79,0.00,,BKN110,0.00,223.00,VWS V14.00,2013-04-10 14:23:00,
2013-04-10 09:28:00,26.0,20.1,30.40,NE,43,7.0,12.0,78,0.00,,BKN110,0.00,271.00,VWS V14.00,2013-04-10 14:28:00,
2013-04-10 09:33:00,26.3,20.1,30.40,NE,37,5.0,8.0,77,0.00,,SCT110,0.00,272.00,VWS V14.00,2013-04-10 14:33:00,
2013-04-10 09:38:00,26.6,20.4,30.40,NE,39,2.0,9.0,77,0.00,,SCT110,0.00,355.00,VWS V14.00,2013-04-10 14:38:00,
2013-04-10 09:43:00,27.0,20.5,30.39,NNE,12,5.0,9.0,76,0.00,,SCT110,0.00,373.00,VWS V14.00,2013-04-10 14:43:00,
2013-04-10 09:48:00,27.0,20.1,30.39,NNE,17,8.0,9.0,75,0.00,,SCT110,0.00,288.00,VWS V14.00,2013-04-10 14:48:00,
2013-04-10 09:53:00,27.2,20.3,30.39,NNE,26,7.0,9.0,75,0.00,,SCT110,0.00,304.00,VWS V14.00,2013-04-10 14:53:00,
2013-04-10 09:58:00,27.6,20.7,30.39,NNE,26,4.0,9.0,75,0.00,,SCT110,0.00,309.00,VWS V14.00,2013-04-10 14:58:00,
2013-04-10 10:04:00,27.9,20.7,30.39,NE,34,5.0,8.0,74,0.00,,SCT110,0.00,304.00,VWS V14.00,2013-04-10 15:04:00,
2013-04-10 10:09:00,28.0,20.5,30.39,NE,49,5.0,9.0,73,0.00,,SCT110,0.00,287.00,VWS V14.00,2013-04-10 15:09:00,
2013-04-10 10:14:00,28.0,20.5,30.39,NE,50,7.0,9.0,73,0.00,,SCT110,0.00,264.00,VWS V14.00,2013-04-10 15:14:00,
2013-04-10 10:19:00,27.9,19.7,30.39,NE,55,4.0,9.0,71,0.00,,SCT110,0.00,255.00,VWS V14.00,2013-04-10 15:19:00,
2013-04-10 10:24:00,27.7,19.2,30.39,ENE,59,7.0,9.0,70,0.00,,SCT110,0.00,257.00,VWS V14.00,2013-04-10 15:24:00,
2013-04-10 10:29:00,27.7,19.9,30.38,ENE,57,5.0,9.0,72,0.00,,SCT110,0.00,352.00,VWS V14.00,2013-04-10 15:29:00,
2013-04-10 10:34:00,27.6,19.1,30.38,ENE,65,2.0,7.0,70,0.00,,CLR,0.00,346.00,VWS V14.00,2013-04-10 15:34:00,
2013-04-10 10:39:00,28.0,20.5,30.38,ENE,57,4.0,8.0,73,0.00,,CLR,0.00,404.00,VWS V14.00,2013-04-10 15:39:00,
2013-04-10 10:44:00,28.6,20.4,30.38,ENE,59,4.0,8.0,71,0.00,,CLR,0.00,404.00,VWS V14.00,2013-04-10 15:44:00,
2013-04-10 10:49:00,28.8,20.3,30.38,ENE,61,5.0,8.0,70,0.00,,CLR,0.00,320.00,VWS V14.00,2013-04-10 15:49:00,
2013-04-10 10:54:00,28.3,19.1,30.38,ENE,64,4.0,8.0,68,0.00,,CLR,0.00,239.00,VWS V14.00,2013-04-10 15:54:00,
2013-04-10 10:59:00,27.9,18.7,30.38,ENE,64,3.0,8.0,68,0.00,,CLR,0.00,244.00,VWS V14.00,2013-04-10 15:59:00,
2013-04-10 11:05:00,28.2,20.0,30.38,NE,38,2.0,7.0,71,0.00,,CLR,0.00,262.00,VWS V14.00,2013-04-10 16:05:00,
2013-04-10 11:10:00,28.2,19.4,30.38,NE,38,1.0,7.0,69,0.00,,CLR,0.00,281.00,VWS V14.00,2013-04-10 16:10:00,
2013-04-10 11:15:00,28.5,20.0,30.38,NE,38,2.0,7.0,70,0.00,,CLR,0.00,290.00,VWS V14.00,2013-04-10 16:15:00,
2013-04-10 11:20:00,28.9,19.7,30.38,NE,39,4.0,7.0,68,0.00,,CLR,0.00,295.00,VWS V14.00,2013-04-10 16:20:00,
2013-04-10 11:25:00,29.2,20.0,30.38,NE,39,4.0,7.0,68,0.00,,CLR,0.00,279.00,VWS V14.00,2013-04-10 16:25:00,
2013-04-10 11:30:00,29.5,19.9,30.37,NE,34,6.0,9.0,67,0.00,,CLR,0.00,279.00,VWS V14.00,2013-04-10 16:30:00,
2013-04-10 11:35:00,29.7,20.1,30.37,NE,34,1.0,6.0,67,0.00,,CLR,0.00,306.00,VWS V14.00,2013-04-10 16:35:00,
2013-04-10 11:40:00,29.7,20.1,30.37,North,11,3.0,7.0,67,0.00,,CLR,0.00,327.00,VWS V14.00,2013-04-10 16:40:00,
2013-04-10 11:46:00,29.4,20.2,30.37,NNW,346,6.0,9.0,68,0.00,,CLR,0.00,350.00,VWS V14.00,2013-04-10 16:46:00,
2013-04-10 11:51:00,29.1,19.5,30.37,NNW,339,6.0,9.0,67,0.00,,SCT120,0.00,373.00,VWS V14.00,2013-04-10 16:51:00,
2013-04-10 11:57:00,29.1,19.9,30.36,NNW,346,8.0,12.0,68,0.00,,SCT120,0.00,410.00,VWS V14.00,2013-04-10 16:57:00,
2013-04-10 12:02:00,29.7,20.5,30.36,North,355,5.0,11.0,68,0.00,,SCT120,0.00,499.00,VWS V14.00,2013-04-10 17:02:00,
2013-04-10 12:07:00,30.0,19.3,30.36,North,5,7.0,12.0,64,0.00,,SCT120,0.00,541.00,VWS V14.00,2013-04-10 17:07:00,
2013-04-10 12:12:00,30.5,20.1,30.36,NNW,340,10.0,12.0,65,0.00,,SCT120,0.00,550.00,VWS V14.00,2013-04-10 17:12:00,
2013-04-10 12:17:00,30.2,19.1,30.36,NNW,332,5.0,12.0,63,0.00,,SCT120,0.00,452.00,VWS V14.00,2013-04-10 17:17:00,
2013-04-10 12:22:00,30.2,19.9,30.37,NNW,344,8.0,12.0,65,0.00,,SCT120,0.00,388.00,VWS V14.00,2013-04-10 17:22:00,
2013-04-10 12:27:00,30.2,19.5,30.36,North,351,5.0,12.0,64,0.00,,SCT120,0.00,439.00,VWS V14.00,2013-04-10 17:27:00,
2013-04-10 12:33:00,30.7,20.0,30.37,North,10,5.0,8.0,64,0.00,,OVC110,0.00,533.00,VWS V14.00,2013-04-10 17:33:00,
2013-04-10 12:38:00,31.5,20.4,30.36,NNE,22,9.0,9.0,63,0.00,,OVC110,0.00,628.00,VWS V14.00,2013-04-10 17:38:00,
2013-04-10 12:43:00,32.5,20.2,30.36,NNE,22,5.0,11.0,60,0.00,,OVC110,0.00,735.00,VWS V14.00,2013-04-10 17:43:00,
2013-04-10 12:48:00,32.9,20.2,30.36,North,349,7.0,11.0,59,0.00,,OVC110,0.00,786.00,VWS V14.00,2013-04-10 17:48:00,
2013-04-10 12:53:00,32.6,20.3,30.36,NNE,25,7.0,13.0,60,0.00,,OVC110,0.00,784.00,VWS V14.00,2013-04-10 17:53:00,
2013-04-10 12:58:00,33.5,21.1,30.35,NE,40,4.0,13.0,60,0.00,,OVC110,0.00,780.00,VWS V14.00,2013-04-10 17:58:00,
2013-04-10 13:03:00,34.1,20.5,30.34,North,355,11.0,14.0,57,0.00,,OVC110,0.00,633.00,VWS V14.00,2013-04-10 18:03:00,
2013-04-10 13:08:00,33.3,20.1,30.34,North,349,7.0,14.0,58,0.00,,OVC110,0.00,552.00,VWS V14.00,2013-04-10 18:08:00,
2013-04-10 13:13:00,33.3,19.3,30.34,NNE,17,11.0,16.0,56,0.00,,FEW029,0.00,671.00,VWS V14.00,2013-04-10 18:13:00,
2013-04-10 13:19:00,32.9,18.9,30.34,NNE,22,8.0,16.0,56,0.00,,FEW029,0.00,311.00,VWS V14.00,2013-04-10 18:19:00,
2013-04-10 13:24:00,33.0,19.9,30.33,NNE,16,10.0,16.0,58,0.00,,OVC110,0.00,420.00,VWS V14.00,2013-04-10 18:24:00,
2013-04-10 13:29:00,33.3,20.1,30.33,NNW,340,8.0,16.0,58,0.00,,OVC110,0.00,496.00,VWS V14.00,2013-04-10 18:29:00,
2013-04-10 13:34:00,33.5,20.3,30.32,NNE,14,8.0,13.0,58,0.00,,OVC100,0.00,552.00,VWS V14.00,2013-04-10 18:34:00,
2013-04-10 13:39:00,34.3,21.1,30.33,NNE,16,7.0,16.0,58,0.00,,OVC100,0.00,647.00,VWS V14.00,2013-04-10 18:39:00,
2013-04-10 13:44:00,34.4,19.0,30.32,North,355,11.0,16.0,53,0.00,,OVC100,0.00,663.00,VWS V14.00,2013-04-10 18:44:00,
2013-04-10 13:49:00,34.9,20.4,30.32,North,11,7.0,16.0,55,0.00,,OVC100,0.00,668.00,VWS V14.00,2013-04-10 18:49:00,
2013-04-10 13:54:00,35.3,19.5,30.32,NNE,13,6.0,16.0,52,0.00,,OVC100,0.00,874.00,VWS V14.00,2013-04-10 18:54:00,
2013-04-10 13:59:00,36.2,21.2,30.32,NNE,33,14.0,16.0,54,0.00,,OVC100,0.00,954.00,VWS V14.00,2013-04-10 18:59:00,
2013-04-10 14:05:00,36.5,20.1,30.32,NNE,28,8.0,17.0,51,0.00,,OVC100,0.00,902.00,VWS V14.00,2013-04-10 19:05:00,
2013-04-10 14:10:00,37.0,21.0,30.32,ENE,64,9.0,17.0,52,0.00,,OVC100,0.00,802.00,VWS V14.00,2013-04-10 19:10:00,
2013-04-10 14:15:00,36.6,20.6,30.32,ENE,76,8.0,17.0,52,0.00,,OVC100,0.00,659.00,VWS V14.00,2013-04-10 19:15:00,
2013-04-10 14:20:00,36.1,20.6,30.32,NE,42,6.0,17.0,53,0.00,,OVC100,0.00,598.00,VWS V14.00,2013-04-10 19:20:00,
2013-04-10 14:25:00,36.2,20.3,30.32,NE,42,13.0,17.0,52,0.00,,OVC100,0.00,603.00,VWS V14.00,2013-04-10 19:25:00,
2013-04-10 14:30:00,36.1,20.6,30.32,NE,40,11.0,17.0,53,0.00,,OVC100,0.00,519.00,VWS V14.00,2013-04-10 19:30:00,
2013-04-10 14:36:00,35.7,19.4,30.31,East,79,10.0,13.0,51,0.00,,BKN100,0.00,480.00,VWS V14.00,2013-04-10 19:36:00,
2013-04-10 14:41:00,35.3,20.8,30.31,NNE,24,11.0,17.0,55,0.00,,BKN100,0.00,461.00,VWS V14.00,2013-04-10 19:41:00,
2013-04-10 14:46:00,35.5,21.0,30.31,NE,36,9.0,17.0,55,0.00,,BKN100,0.00,520.00,VWS V14.00,2013-04-10 19:46:00,
2013-04-10 14:51:00,35.7,20.7,30.31,ENE,58,12.0,17.0,54,0.00,,BKN100,0.00,561.00,VWS V14.00,2013-04-10 19:51:00,
2013-04-10 14:56:00,35.8,19.9,30.31,ENE,60,9.0,17.0,52,0.00,,BKN100,0.00,570.00,VWS V14.00,2013-04-10 19:56:00,
2013-04-10 15:01:00,35.7,20.7,30.31,NE,56,12.0,13.0,54,0.00,,BKN100,0.00,629.00,VWS V14.00,2013-04-10 20:01:00,
2013-04-10 15:06:00,35.9,19.1,30.30,ENE,65,9.0,16.0,50,0.00,,BKN100,0.00,636.00,VWS V14.00,2013-04-10 20:06:00,
2013-04-10 15:11:00,35.7,18.0,30.30,East,79,9.0,16.0,48,0.00,,BKN100,0.00,513.00,VWS V14.00,2013-04-10 20:11:00,
2013-04-10 15:16:00,35.6,19.3,30.30,ENE,69,7.0,16.0,51,0.00,,BKN100,0.00,571.00,VWS V14.00,2013-04-10 20:16:00,
2013-04-10 15:22:00,36.1,20.2,30.29,NE,53,10.0,16.0,52,0.00,,BKN100,0.00,726.00,VWS V14.00,2013-04-10 20:22:00,
2013-04-10 15:27:00,36.7,20.3,30.28,ENE,57,9.0,16.0,51,0.00,,BKN100,0.00,707.00,VWS V14.00,2013-04-10 20:27:00,
2013-04-10 15:33:00,36.5,20.1,30.27,NE,51,7.0,16.0,51,0.00,,OVC080,0.00,445.00,VWS V14.00,2013-04-10 20:33:00,
2013-04-10 15:38:00,36.1,19.7,30.27,NNE,28,11.0,16.0,51,0.00,,OVC080,0.00,308.00,VWS V14.00,2013-04-10 20:38:00,
2013-04-10 15:43:00,35.7,19.8,30.27,NNE,30,13.0,16.0,52,0.00,,OVC080,0.00,313.00,VWS V14.00,2013-04-10 20:43:00,
2013-04-10 15:48:00,35.5,20.1,30.27,NNE,32,9.0,16.0,53,0.00,,OVC080,0.00,468.00,VWS V14.00,2013-04-10 20:48:00,
2013-04-10 15:53:00,35.7,18.4,30.26,ENE,57,8.0,16.0,49,0.00,,OVC080,0.00,594.00,VWS V14.00,2013-04-10 20:53:00,
2013-04-10 15:58:00,35.1,19.3,30.26,East,84,13.0,16.0,52,0.00,,OVC080,0.00,661.00,VWS V14.00,2013-04-10 20:58:00,
2013-04-10 16:03:00,34.8,19.4,30.26,ENE,71,9.0,14.0,53,0.00,,OVC080,0.00,684.00,VWS V14.00,2013-04-10 21:03:00,
2013-04-10 16:09:00,35.3,19.0,30.26,East,93,13.0,15.0,51,0.00,,OVC080,0.00,698.00,VWS V14.00,2013-04-10 21:09:00,
2013-04-10 16:14:00,35.9,20.9,30.26,ESE,115,8.0,15.0,54,0.00,,OVC080,0.00,694.00,VWS V14.00,2013-04-10 21:14:00,
2013-04-10 16:19:00,35.7,20.7,30.26,East,94,11.0,15.0,54,0.00,,OVC080,0.00,689.00,VWS V14.00,2013-04-10 21:19:00,
2013-04-10 16:24:00,35.0,19.2,30.25,ENE,71,11.0,15.0,52,0.00,,OVC080,0.00,687.00,VWS V14.00,2013-04-10 21:24:00,
2013-04-10 16:29:00,35.3,19.0,30.25,East,96,10.0,15.0,51,0.00,,OVC080,0.00,700.00,VWS V14.00,2013-04-10 21:29:00,
2013-04-10 16:34:00,35.9,20.9,30.25,East,101,13.0,17.0,54,0.00,,BKN070,0.00,744.00,VWS V14.00,2013-04-10 21:34:00,
2013-04-10 16:39:00,35.5,20.5,30.25,ESE,123,5.0,17.0,54,0.00,,BKN070,0.00,782.00,VWS V14.00,2013-04-10 21:39:00,
2013-04-10 16:44:00,35.2,19.4,30.25,ENE,78,14.0,17.0,52,0.00,,BKN070,0.00,728.00,VWS V14.00,2013-04-10 21:44:00,
2013-04-10 16:49:00,34.7,21.0,30.24,East,90,9.0,17.0,57,0.00,,BKN070,0.00,519.00,VWS V14.00,2013-04-10 21:49:00,
2013-04-10 16:54:00,34.8,20.7,30.24,ENE,74,9.0,17.0,56,0.00,,BKN070,0.00,445.00,VWS V14.00,2013-04-10 21:54:00,
2013-04-10 16:59:00,34.6,21.4,30.24,East,79,9.0,17.0,58,0.00,,BKN070,0.00,485.00,VWS V14.00,2013-04-10 21:59:00,
2013-04-10 17:04:00,34.7,21.5,30.23,ENE,57,14.0,16.0,58,0.00,,BKN070,0.00,543.00,VWS V14.00,2013-04-10 22:04:00,
2013-04-10 17:09:00,35.4,22.9,30.23,NE,54,6.0,16.0,60,0.00,,BKN070,0.00,599.00,VWS V14.00,2013-04-10 22:09:00,
2013-04-10 17:15:00,36.0,22.3,30.23,ENE,74,10.0,16.0,57,0.00,,BKN070,0.00,605.00,VWS V14.00,2013-04-10 22:15:00,
2013-04-10 17:20:00,35.8,21.6,30.22,East,94,8.0,16.0,56,0.00,,BKN070,0.00,594.00,VWS V14.00,2013-04-10 22:20:00,
2013-04-10 17:25:00,35.3,21.2,30.22,East,95,8.0,16.0,56,0.00,,BKN070,0.00,552.00,VWS V14.00,2013-04-10 22:25:00,
2013-04-10 17:30:00,35.8,21.6,30.22,East,98,10.0,16.0,56,0.00,,BKN070,0.00,524.00,VWS V14.00,2013-04-10 22:30:00,
2013-04-10 17:35:00,35.5,20.5,30.22,East,84,6.0,12.0,54,0.00,,BKN100,0.00,420.00,VWS V14.00,2013-04-10 22:35:00,
2013-04-10 17:40:00,35.5,20.5,30.22,East,82,15.0,15.0,54,0.00,,BKN100,0.00,413.00,VWS V14.00,2013-04-10 22:40:00,
2013-04-10 17:45:00,35.2,20.7,30.22,ESE,102,11.0,15.0,55,0.00,,BKN100,0.00,315.00,VWS V14.00,2013-04-10 22:45:00,
2013-04-10 17:50:00,35.0,20.5,30.22,East,91,11.0,15.0,55,0.00,,BKN100,0.00,218.00,VWS V14.00,2013-04-10 22:50:00,
2013-04-10 17:55:00,34.6,20.5,30.22,East,92,9.0,15.0,56,0.00,,BKN100,0.00,213.00,VWS V14.00,2013-04-10 22:55:00,
2013-04-10 18:00:00,34.2,20.1,30.22,East,98,13.0,15.0,56,0.00,,BKN100,0.00,225.00,VWS V14.00,2013-04-10 23:00:00,
2013-04-10 18:05:00,34.0,20.0,30.22,ESE,104,11.0,15.0,56,0.00,,BKN100,0.00,410.00,VWS V14.00,2013-04-10 23:05:00,
2013-04-10 18:11:00,34.6,20.5,30.22,East,98,10.0,15.0,56,0.00,,BKN100,0.00,455.00,VWS V14.00,2013-04-10 23:11:00,
2013-04-10 18:16:00,34.7,19.3,30.22,East,94,7.0,16.0,53,0.00,,BKN100,0.00,446.00,VWS V14.00,2013-04-10 23:16:00,
2013-04-10 18:22:00,34.8,19.4,30.22,East,86,6.0,16.0,53,0.00,,BKN100,0.00,325.00,VWS V14.00,2013-04-10 23:22:00,
2013-04-10 18:27:00,34.5,19.1,30.22,ENE,67,12.0,16.0,53,0.00,,BKN100,0.00,332.00,VWS V14.00,2013-04-10 23:27:00,
2013-04-10 18:32:00,34.5,20.0,30.22,East,94,7.0,10.0,55,0.00,,CLR,0.00,311.00,VWS V14.00,2013-04-10 23:32:00,
2013-04-10 18:37:00,34.6,18.8,30.22,ESE,117,7.0,12.0,52,0.00,,CLR,0.00,396.00,VWS V14.00,2013-04-10 23:37:00,
2013-04-10 18:42:00,34.4,17.7,30.22,East,96,7.0,12.0,50,0.00,,CLR,0.00,357.00,VWS V14.00,2013-04-10 23:42:00,
2013-04-10 18:48:00,34.7,19.3,30.22,ENE,75,7.0,13.0,53,0.00,,CLR,0.00,278.00,VWS V14.00,2013-04-10 23:48:00,
2013-04-10 18:53:00,34.8,19.4,30.22,ENE,60,7.0,13.0,53,0.00,,CLR,0.00,248.00,VWS V14.00,2013-04-10 23:53:00,
2013-04-10 18:58:00,35.1,20.6,30.22,NE,36,5.0,13.0,55,0.00,,CLR,0.00,195.00,VWS V14.00,2013-04-10 23:58:00,
2013-04-10 19:03:00,34.7,21.0,30.21,NE,36,10.0,11.0,57,0.00,,CLR,0.00,139.00,VWS V14.00,2013-04-11 00:03:00,
2013-04-10 19:08:00,34.6,21.0,30.21,NE,34,7.0,11.0,57,0.00,,CLR,0.00,120.00,VWS V14.00,2013-04-11 00:08:00,
2013-04-10 19:13:00,34.6,20.5,30.21,NE,52,4.0,11.0,56,0.00,,SCT085,0.00,135.00,VWS V14.00,2013-04-11 00:13:00,
2013-04-10 19:19:00,34.3,20.2,30.21,NE,49,7.0,11.0,56,0.00,,SCT085,0.00,65.00,VWS V14.00,2013-04-11 00:19:00,
2013-04-10 19:24:00,33.9,19.9,30.20,ENE,57,7.0,11.0,56,0.00,,SCT085,0.00,70.00,VWS V14.00,2013-04-11 00:24:00,
2013-04-10 19:29:00,33.5,20.3,30.20,NE,51,7.0,11.0,58,0.00,,SCT085,0.00,76.00,VWS V14.00,2013-04-11 00:29:00,
2013-04-10 19:34:00,33.1,20.4,30.20,ENE,61,8.0,9.0,59,0.00,,SCT085,0.00,81.00,VWS V14.00,2013-04-11 00:34:00,
2013-04-10 19:39:00,32.8,20.1,30.20,ENE,73,8.0,11.0,59,0.00,,SCT085,0.00,70.00,VWS V14.00,2013-04-11 00:39:00,
2013-04-10 19:44:00,32.4,19.3,30.20,ENE,74,9.0,12.0,58,0.00,,SCT085,0.00,76.00,VWS V14.00,2013-04-11 00:44:00,
2013-04-10 19:49:00,32.1,19.0,30.20,ENE,59,9.0,12.0,58,0.00,,SCT085,0.00,70.00,VWS V14.00,2013-04-11 00:49:00,
2013-04-10 19:54:00,31.9,18.8,30.20,ENE,61,7.0,12.0,58,0.00,,SCT085,0.00,60.00,VWS V14.00,2013-04-11 00:54:00,
2013-04-10 19:59:00,31.8,19.1,30.19,ENE,60,7.0,12.0,59,0.00,,SCT085,0.00,46.00,VWS V14.00,2013-04-11 00:59:00,
2013-04-10 20:04:00,31.5,19.6,30.19,ENE,61,7.0,10.0,61,0.00,,SCT085,0.00,35.00,VWS V14.00,2013-04-11 01:04:00,
2013-04-10 20:10:00,31.2,19.3,30.19,ENE,61,8.0,10.0,61,0.00,,SCT085,0.00,26.00,VWS V14.00,2013-04-11 01:10:00,
2013-04-10 20:15:00,30.9,19.8,30.19,ENE,69,10.0,12.0,63,0.00,,SCT085,0.00,21.00,VWS V14.00,2013-04-11 01:15:00,
2013-04-10 20:20:00,30.5,20.1,30.19,ENE,62,8.0,12.0,65,0.00,,SCT085,0.00,11.00,VWS V14.00,2013-04-11 01:20:00,
2013-04-10 20:25:00,30.2,20.2,30.19,ENE,66,8.0,12.0,66,0.00,,SCT085,0.00,7.00,VWS V14.00,2013-04-11 01:25:00,
2013-04-10 20:30:00,30.0,20.0,30.19,ENE,68,9.0,12.0,66,0.00,,SCT085,0.00,0.00,VWS V14.00,2013-04-11 01:30:00,
2013-04-10 20:35:00,29.8,19.5,30.18,ENE,73,7.0,10.0,65,0.00,,SCT085,0.00,0.00,VWS V14.00,2013-04-11 01:35:00,
2013-04-10 20:40:00,29.7,19.8,30.19,ENE,62,8.0,11.0,66,0.00,,SCT085,0.00,0.00,VWS V14.00,2013-04-11 01:40:00,
2013-04-10 20:45:00,29.4,19.1,30.19,ENE,66,10.0,14.0,65,0.00,,SCT085,0.00,0.00,VWS V14.00,2013-04-11 01:45:00,
2013-04-10 20:50:00,29.2,18.9,30.19,NE,54,10.0,14.0,65,0.00,,SCT085,0.00,0.00,VWS V14.00,2013-04-11 01:50:00,
2013-04-10 20:55:00,29.0,19.4,30.19,NE,52,11.0,14.0,67,0.00,,OVC080,0.00,0.00,VWS V14.00,2013-04-11 01:55:00,
2013-04-10 21:00:00,28.8,19.9,30.19,NE,52,7.0,14.0,69,0.00,,OVC080,0.00,0.00,VWS V14.00,2013-04-11 02:00:00,
2013-04-10 21:05:00,28.7,20.5,30.19,NE,51,10.0,11.0,71,0.00,,OVC080,0.00,0.00,VWS V14.00,2013-04-11 02:05:00,
2013-04-10 21:10:00,28.6,20.4,30.19,ENE,60,10.0,13.0,71,0.00,,OVC080,0.00,0.00,VWS V14.00,2013-04-11 02:10:00,
2013-04-10 21:15:00,28.5,20.3,30.19,NE,55,10.0,14.0,71,0.00,,OVC080,0.00,0.00,VWS V14.00,2013-04-11 02:15:00,
2013-04-10 21:21:00,28.3,19.8,30.19,ENE,63,12.0,15.0,70,0.00,,OVC080,0.00,0.00,VWS V14.00,2013-04-11 02:21:00,
2013-04-10 21:26:00,28.1,19.6,30.20,ENE,65,10.0,15.0,70,0.00,,OVC080,0.00,0.00,VWS V14.00,2013-04-11 02:26:00,
2013-04-10 21:31:00,28.0,19.5,30.20,ENE,65,12.0,12.0,70,0.00,,OVC080,0.00,0.00,VWS V14.00,2013-04-11 02:31:00,
2013-04-10 21:37:00,27.8,19.3,30.20,ENE,71,9.0,15.0,70,0.00,,OVC080,0.00,0.00,VWS V14.00,2013-04-11 02:37:00,
2013-04-10 21:42:00,27.8,19.6,30.20,ENE,63,8.0,15.0,71,0.00,,OVC080,0.00,0.00,VWS V14.00,2013-04-11 02:42:00,
2013-04-10 21:47:00,27.7,19.9,30.20,ENE,65,9.0,15.0,72,0.00,,OVC080,0.00,0.00,VWS V14.00,2013-04-11 02:47:00,
2013-04-10 21:52:00,27.6,19.8,30.20,ENE,61,8.0,15.0,72,0.00,,OVC080,0.00,0.00,VWS V14.00,2013-04-11 02:52:00,
2013-04-10 21:57:00,27.6,19.8,30.20,ENE,60,7.0,15.0,72,0.00,,OVC080,0.00,0.00,VWS V14.00,2013-04-11 02:57:00,
2013-04-10 22:02:00,27.6,19.8,30.20,ENE,64,10.0,13.0,72,0.00,,OVC080,0.00,0.00,VWS V14.00,2013-04-11 03:02:00,
2013-04-10 22:07:00,27.5,20.9,30.20,ENE,69,13.0,13.0,76,0.00,,OVC080,0.00,0.00,VWS V14.00,2013-04-11 03:07:00,
2013-04-10 22:13:00,27.4,18.6,30.19,ENE,68,13.0,14.0,69,0.00,,OVC080,0.00,0.00,VWS V14.00,2013-04-11 03:13:00,
2013-04-10 22:18:00,27.3,18.5,30.19,ENE,67,9.0,14.0,69,0.00,,OVC080,0.00,0.00,VWS V14.00,2013-04-11 03:18:00,
2013-04-10 22:23:00,27.2,19.1,30.19,NE,50,10.0,14.0,71,0.00,,OVC080,0.00,0.00,VWS V14.00,2013-04-11 03:23:00,
2013-04-10 22:28:00,27.2,19.1,30.18,NE,46,10.0,14.0,71,0.00,,OVC080,0.00,0.00,VWS V14.00,2013-04-11 03:28:00,
2013-04-10 22:33:00,27.1,19.6,30.18,ENE,61,11.0,13.0,73,0.00,,OVC080,0.00,0.00,VWS V14.00,2013-04-11 03:33:00,
2013-04-10 22:38:00,27.1,19.3,30.17,ENE,59,10.0,14.0,72,0.00,,OVC080,0.00,0.00,VWS V14.00,2013-04-11 03:38:00,
2013-04-10 22:43:00,27.0,19.8,30.17,NE,46,7.0,14.0,74,0.00,,OVC080,0.00,0.00,VWS V14.00,2013-04-11 03:43:00,
2013-04-10 22:49:00,26.9,20.0,30.17,NE,56,9.0,14.0,75,0.00,,OVC080,0.00,0.00,VWS V14.00,2013-04-11 03:49:00,
2013-04-10 22:54:00,26.8,20.3,30.17,NE,49,9.0,14.0,76,0.00,,OVC080,0.00,0.00,VWS V14.00,2013-04-11 03:54:00,
2013-04-10 22:59:00,26.8,20.3,30.17,ENE,61,9.0,14.0,76,0.00,,OVC080,0.00,0.00,VWS V14.00,2013-04-11 03:59:00,
2013-04-10 23:00:00,26.8,20.3,30.17,ENE,69,8.0,14.0,76,0.00,,OVC080,0.00,0.00,VWS V14.00,2013-04-11 04:00:00,
2013-04-10 23:05:00,26.7,19.9,30.17,NE,50,9.0,13.0,75,0.00,,OVC080,0.00,0.00,VWS V14.00,2013-04-11 04:05:00,
2013-04-10 23:07:00,26.6,19.8,30.16,ENE,59,10.0,13.0,75,0.00,,OVC080,0.00,0.00,VWS V14.00,2013-04-11 04:07:00,
2013-04-10 23:12:00,26.6,19.4,30.16,ENE,59,12.0,13.0,74,0.00,,OVC080,0.00,0.00,VWS V14.00,2013-04-11 04:12:00,
2013-04-10 23:17:00,26.5,19.4,30.15,ENE,61,10.0,14.0,74,0.00,,OVC080,0.00,0.00,VWS V14.00,2013-04-11 04:17:00,
2013-04-10 23:22:00,26.4,19.2,30.15,ENE,65,11.0,14.0,74,0.00,,OVC080,0.00,0.00,VWS V14.00,2013-04-11 04:22:00,
2013-04-10 23:27:00,26.4,19.6,30.15,ENE,67,12.0,14.0,75,0.00,,OVC080,0.00,0.00,VWS V14.00,2013-04-11 04:27:00,
2013-04-10 23:32:00,26.3,19.5,30.15,ENE,68,10.0,13.0,75,0.00,,OVC080,0.00,0.00,VWS V14.00,2013-04-11 04:32:00,
2013-04-10 23:38:00,26.3,19.5,30.15,ENE,61,11.0,13.0,75,0.00,,OVC080,0.00,0.00,VWS V14.00,2013-04-11 04:38:00,
2013-04-10 23:43:00,26.3,19.5,30.15,ENE,76,8.0,13.0,75,0.00,,OVC080,0.00,0.00,VWS V14.00,2013-04-11 04:43:00,
2013-04-10 23:48:00,26.2,19.1,30.14,ENE,76,11.0,13.0,74,0.00,,OVC080,0.00,0.00,VWS V14.00,2013-04-11 04:48:00,
2013-04-10 23:53:00,26.2,19.1,30.14,ENE,71,8.0,15.0,74,0.00,,OVC080,0.00,0.00,VWS V14.00,2013-04-11 04:53:00,
2013-04-10 23:58:00,26.1,19.3,30.14,ENE,69,9.0,15.0,75,0.00,,OVC080,0.00,0.00,VWS V14.00,2013-04-11 04:58:00,